sensor_id;sensor_type;location;lat;lon;timestamp;P1;durP1;ratioP1;P2;durP2;ratioP2
11006;SDS011;8186;57.652;11.968;2024-02-23T00:00:12;1.10;;;1.00;;
11006;SDS011;8186;57.652;11.968;2024-02-23T00:02:39;1.00;;;1.00;;
11006;SDS011;8186;57.652;11.968;2024-02-23T00:05:07;0.80;;;0.80;;
11006;SDS011;8186;57.652;11.968;2024-02-23T00:07:35;0.70;;;0.70;;
11006;SDS011;8186;57.652;11.968;2024-02-23T00:10:02;0.70;;;0.70;;
11006;SDS011;8186;57.652;11.968;2024-02-23T00:12:29;0.90;;;0.90;;
11006;SDS011;8186;57.652;11.968;2024-02-23T00:14:56;1.27;;;0.90;;
11006;SDS011;8186;57.652;11.968;2024-02-23T00:17:23;0.70;;;0.70;;
11006;SDS011;8186;57.652;11.968;2024-02-23T00:19:49;0.60;;;0.60;;
11006;SDS011;8186;57.652;11.968;2024-02-23T00:22:18;0.90;;;0.70;;
11006;SDS011;8186;57.652;11.968;2024-02-23T00:24:46;0.73;;;0.73;;
11006;SDS011;8186;57.652;11.968;2024-02-23T00:27:13;0.60;;;0.60;;
11006;SDS011;8186;57.652;11.968;2024-02-23T00:29:39;0.93;;;0.70;;
11006;SDS011;8186;57.652;11.968;2024-02-23T00:32:07;0.80;;;0.80;;
11006;SDS011;8186;57.652;11.968;2024-02-23T00:34:33;0.70;;;0.70;;
11006;SDS011;8186;57.652;11.968;2024-02-23T00:37:00;0.87;;;0.80;;
11006;SDS011;8186;57.652;11.968;2024-02-23T00:39:30;0.63;;;0.63;;
11006;SDS011;8186;57.652;11.968;2024-02-23T00:41:59;0.60;;;0.60;;
11006;SDS011;8186;57.652;11.968;2024-02-23T00:44:25;0.70;;;0.70;;
11006;SDS011;8186;57.652;11.968;2024-02-23T00:46:52;0.70;;;0.70;;
11006;SDS011;8186;57.652;11.968;2024-02-23T00:49:19;0.60;;;0.60;;
11006;SDS011;8186;57.652;11.968;2024-02-23T00:51:46;1.03;;;0.50;;
11006;SDS011;8186;57.652;11.968;2024-02-23T00:54:13;0.53;;;0.53;;
11006;SDS011;8186;57.652;11.968;2024-02-23T00:56:40;0.57;;;0.57;;
11006;SDS011;8186;57.652;11.968;2024-02-23T00:59:08;0.60;;;0.50;;
11006;SDS011;8186;57.652;11.968;2024-02-23T01:01:35;0.40;;;0.40;;
11006;SDS011;8186;57.652;11.968;2024-02-23T01:04:02;0.70;;;0.60;;
11006;SDS011;8186;57.652;11.968;2024-02-23T01:06:29;0.60;;;0.60;;
11006;SDS011;8186;57.652;11.968;2024-02-23T01:08:56;0.50;;;0.50;;
11006;SDS011;8186;57.652;11.968;2024-02-23T01:11:22;0.57;;;0.57;;
11006;SDS011;8186;57.652;11.968;2024-02-23T01:13:49;0.50;;;0.50;;
11006;SDS011;8186;57.652;11.968;2024-02-23T01:16:18;0.90;;;0.70;;
11006;SDS011;8186;57.652;11.968;2024-02-23T01:18:44;0.53;;;0.53;;
11006;SDS011;8186;57.652;11.968;2024-02-23T01:21:11;0.70;;;0.60;;
11006;SDS011;8186;57.652;11.968;2024-02-23T01:23:38;0.73;;;0.70;;
11006;SDS011;8186;57.652;11.968;2024-02-23T01:26:05;0.80;;;0.70;;
11006;SDS011;8186;57.652;11.968;2024-02-23T01:28:32;0.63;;;0.63;;
11006;SDS011;8186;57.652;11.968;2024-02-23T01:30:59;1.30;;;0.70;;
11006;SDS011;8186;57.652;11.968;2024-02-23T01:33:27;1.63;;;0.70;;
11006;SDS011;8186;57.652;11.968;2024-02-23T01:35:54;1.17;;;0.70;;
11006;SDS011;8186;57.652;11.968;2024-02-23T01:38:22;0.63;;;0.63;;
11006;SDS011;8186;57.652;11.968;2024-02-23T01:40:50;0.63;;;0.63;;
11006;SDS011;8186;57.652;11.968;2024-02-23T01:43:17;0.70;;;0.60;;
11006;SDS011;8186;57.652;11.968;2024-02-23T01:45:43;0.60;;;0.60;;
11006;SDS011;8186;57.652;11.968;2024-02-23T01:48:10;0.60;;;0.60;;
11006;SDS011;8186;57.652;11.968;2024-02-23T01:50:39;0.63;;;0.60;;
11006;SDS011;8186;57.652;11.968;2024-02-23T01:53:06;1.43;;;0.60;;
11006;SDS011;8186;57.652;11.968;2024-02-23T01:55:32;0.50;;;0.50;;
11006;SDS011;8186;57.652;11.968;2024-02-23T01:58:00;0.60;;;0.60;;
11006;SDS011;8186;57.652;11.968;2024-02-23T02:00:27;0.60;;;0.60;;
11006;SDS011;8186;57.652;11.968;2024-02-23T02:02:56;0.67;;;0.60;;
11006;SDS011;8186;57.652;11.968;2024-02-23T02:05:23;0.77;;;0.53;;
11006;SDS011;8186;57.652;11.968;2024-02-23T02:07:52;1.13;;;0.80;;
11006;SDS011;8186;57.652;11.968;2024-02-23T02:10:24;0.70;;;0.70;;
11006;SDS011;8186;57.652;11.968;2024-02-23T02:12:51;0.73;;;0.60;;
11006;SDS011;8186;57.652;11.968;2024-02-23T02:15:18;0.50;;;0.50;;
11006;SDS011;8186;57.652;11.968;2024-02-23T02:17:47;1.30;;;0.60;;
11006;SDS011;8186;57.652;11.968;2024-02-23T02:20:14;0.50;;;0.50;;
11006;SDS011;8186;57.652;11.968;2024-02-23T02:22:40;0.70;;;0.70;;
11006;SDS011;8186;57.652;11.968;2024-02-23T02:25:09;0.63;;;0.60;;
11006;SDS011;8186;57.652;11.968;2024-02-23T02:27:36;1.13;;;0.70;;
11006;SDS011;8186;57.652;11.968;2024-02-23T02:30:03;0.40;;;0.40;;
11006;SDS011;8186;57.652;11.968;2024-02-23T02:32:31;1.23;;;0.63;;
11006;SDS011;8186;57.652;11.968;2024-02-23T02:34:58;0.70;;;0.70;;
11006;SDS011;8186;57.652;11.968;2024-02-23T02:37:25;0.87;;;0.50;;
11006;SDS011;8186;57.652;11.968;2024-02-23T02:39:52;0.50;;;0.50;;
11006;SDS011;8186;57.652;11.968;2024-02-23T02:42:20;0.50;;;0.50;;
11006;SDS011;8186;57.652;11.968;2024-02-23T02:44:47;0.80;;;0.43;;
11006;SDS011;8186;57.652;11.968;2024-02-23T02:47:14;0.50;;;0.50;;
11006;SDS011;8186;57.652;11.968;2024-02-23T02:49:40;0.40;;;0.40;;
11006;SDS011;8186;57.652;11.968;2024-02-23T02:52:07;0.50;;;0.50;;
11006;SDS011;8186;57.652;11.968;2024-02-23T02:54:34;0.70;;;0.53;;
11006;SDS011;8186;57.652;11.968;2024-02-23T02:57:01;0.50;;;0.50;;
11006;SDS011;8186;57.652;11.968;2024-02-23T02:59:33;0.73;;;0.60;;
11006;SDS011;8186;57.652;11.968;2024-02-23T03:02:00;0.73;;;0.50;;
11006;SDS011;8186;57.652;11.968;2024-02-23T03:04:27;0.50;;;0.50;;
11006;SDS011;8186;57.652;11.968;2024-02-23T03:06:54;0.30;;;0.30;;
11006;SDS011;8186;57.652;11.968;2024-02-23T03:09:20;0.60;;;0.60;;
11006;SDS011;8186;57.652;11.968;2024-02-23T03:11:47;0.40;;;0.40;;
11006;SDS011;8186;57.652;11.968;2024-02-23T03:14:14;0.40;;;0.40;;
11006;SDS011;8186;57.652;11.968;2024-02-23T03:16:44;0.47;;;0.40;;
11006;SDS011;8186;57.652;11.968;2024-02-23T03:19:12;0.43;;;0.43;;
11006;SDS011;8186;57.652;11.968;2024-02-23T03:21:40;0.40;;;0.40;;
11006;SDS011;8186;57.652;11.968;2024-02-23T03:24:07;0.40;;;0.40;;
11006;SDS011;8186;57.652;11.968;2024-02-23T03:26:34;0.70;;;0.53;;
11006;SDS011;8186;57.652;11.968;2024-02-23T03:29:01;0.40;;;0.40;;
11006;SDS011;8186;57.652;11.968;2024-02-23T03:31:27;0.43;;;0.30;;
11006;SDS011;8186;57.652;11.968;2024-02-23T03:33:56;0.60;;;0.50;;
11006;SDS011;8186;57.652;11.968;2024-02-23T03:36:22;0.87;;;0.40;;
11006;SDS011;8186;57.652;11.968;2024-02-23T03:38:49;0.40;;;0.40;;
11006;SDS011;8186;57.652;11.968;2024-02-23T03:41:16;1.83;;;0.60;;
11006;SDS011;8186;57.652;11.968;2024-02-23T03:43:43;1.53;;;0.67;;
11006;SDS011;8186;57.652;11.968;2024-02-23T03:46:10;2.00;;;0.90;;
11006;SDS011;8186;57.652;11.968;2024-02-23T03:48:39;6.10;;;1.70;;
11006;SDS011;8186;57.652;11.968;2024-02-23T03:51:08;3.60;;;1.63;;
11006;SDS011;8186;57.652;11.968;2024-02-23T03:53:35;9.50;;;1.93;;
11006;SDS011;8186;57.652;11.968;2024-02-23T03:56:01;7.27;;;1.77;;
11006;SDS011;8186;57.652;11.968;2024-02-23T03:58:29;6.60;;;2.07;;
11006;SDS011;8186;57.652;11.968;2024-02-23T04:00:56;3.80;;;2.30;;
11006;SDS011;8186;57.652;11.968;2024-02-23T04:03:22;7.23;;;2.57;;
11006;SDS011;8186;57.652;11.968;2024-02-23T04:05:49;6.30;;;2.40;;
11006;SDS011;8186;57.652;11.968;2024-02-23T04:08:17;7.33;;;1.90;;
11006;SDS011;8186;57.652;11.968;2024-02-23T04:10:44;4.47;;;1.30;;
11006;SDS011;8186;57.652;11.968;2024-02-23T04:13:11;4.43;;;1.60;;
11006;SDS011;8186;57.652;11.968;2024-02-23T04:15:39;4.77;;;1.23;;
11006;SDS011;8186;57.652;11.968;2024-02-23T04:18:06;7.93;;;1.63;;
11006;SDS011;8186;57.652;11.968;2024-02-23T04:20:33;5.63;;;1.50;;
11006;SDS011;8186;57.652;11.968;2024-02-23T04:23:00;8.23;;;1.37;;
11006;SDS011;8186;57.652;11.968;2024-02-23T04:25:28;12.27;;;1.90;;
11006;SDS011;8186;57.652;11.968;2024-02-23T04:27:55;7.50;;;1.90;;
11006;SDS011;8186;57.652;11.968;2024-02-23T04:30:22;6.17;;;1.67;;
11006;SDS011;8186;57.652;11.968;2024-02-23T04:32:49;7.37;;;2.20;;
11006;SDS011;8186;57.652;11.968;2024-02-23T04:35:15;8.27;;;1.83;;
11006;SDS011;8186;57.652;11.968;2024-02-23T04:37:43;7.40;;;1.50;;
11006;SDS011;8186;57.652;11.968;2024-02-23T04:40:10;6.57;;;2.10;;
11006;SDS011;8186;57.652;11.968;2024-02-23T04:42:39;9.03;;;1.83;;
11006;SDS011;8186;57.652;11.968;2024-02-23T04:45:06;6.67;;;1.63;;
11006;SDS011;8186;57.652;11.968;2024-02-23T04:47:34;8.70;;;1.77;;
11006;SDS011;8186;57.652;11.968;2024-02-23T04:50:00;8.27;;;1.50;;
11006;SDS011;8186;57.652;11.968;2024-02-23T04:52:28;6.40;;;1.60;;
11006;SDS011;8186;57.652;11.968;2024-02-23T04:54:55;12.23;;;2.00;;
11006;SDS011;8186;57.652;11.968;2024-02-23T04:57:22;8.50;;;1.60;;
11006;SDS011;8186;57.652;11.968;2024-02-23T04:59:50;8.77;;;2.40;;
11006;SDS011;8186;57.652;11.968;2024-02-23T05:02:17;8.23;;;1.53;;
11006;SDS011;8186;57.652;11.968;2024-02-23T05:04:44;11.03;;;2.17;;
11006;SDS011;8186;57.652;11.968;2024-02-23T05:07:11;8.10;;;1.80;;
11006;SDS011;8186;57.652;11.968;2024-02-23T05:09:38;8.07;;;1.97;;
11006;SDS011;8186;57.652;11.968;2024-02-23T05:12:06;10.20;;;2.70;;
11006;SDS011;8186;57.652;11.968;2024-02-23T05:14:33;7.73;;;1.90;;
11006;SDS011;8186;57.652;11.968;2024-02-23T05:17:01;9.83;;;2.10;;
11006;SDS011;8186;57.652;11.968;2024-02-23T05:19:29;9.70;;;2.60;;
11006;SDS011;8186;57.652;11.968;2024-02-23T05:21:56;8.73;;;1.80;;
11006;SDS011;8186;57.652;11.968;2024-02-23T05:24:23;12.27;;;2.70;;
11006;SDS011;8186;57.652;11.968;2024-02-23T05:26:50;11.47;;;2.53;;
11006;SDS011;8186;57.652;11.968;2024-02-23T05:29:17;11.37;;;2.33;;
11006;SDS011;8186;57.652;11.968;2024-02-23T05:31:48;12.97;;;2.57;;
11006;SDS011;8186;57.652;11.968;2024-02-23T05:34:17;10.77;;;2.40;;
11006;SDS011;8186;57.652;11.968;2024-02-23T05:36:44;10.57;;;2.50;;
11006;SDS011;8186;57.652;11.968;2024-02-23T05:39:12;13.77;;;2.77;;
11006;SDS011;8186;57.652;11.968;2024-02-23T05:41:40;11.57;;;3.07;;
11006;SDS011;8186;57.652;11.968;2024-02-23T05:44:07;12.43;;;2.67;;
11006;SDS011;8186;57.652;11.968;2024-02-23T05:46:34;10.13;;;2.77;;
11006;SDS011;8186;57.652;11.968;2024-02-23T05:49:01;13.47;;;2.87;;
11006;SDS011;8186;57.652;11.968;2024-02-23T05:51:30;14.63;;;2.00;;
11006;SDS011;8186;57.652;11.968;2024-02-23T05:53:57;12.10;;;2.90;;
11006;SDS011;8186;57.652;11.968;2024-02-23T05:56:24;14.37;;;2.47;;
11006;SDS011;8186;57.652;11.968;2024-02-23T05:58:51;11.57;;;2.00;;
11006;SDS011;8186;57.652;11.968;2024-02-23T06:01:18;7.93;;;2.57;;
11006;SDS011;8186;57.652;11.968;2024-02-23T06:03:45;7.40;;;2.37;;
11006;SDS011;8186;57.652;11.968;2024-02-23T06:06:12;7.80;;;1.43;;
11006;SDS011;8186;57.652;11.968;2024-02-23T06:08:40;9.30;;;2.53;;
11006;SDS011;8186;57.652;11.968;2024-02-23T06:11:09;6.27;;;2.13;;
11006;SDS011;8186;57.652;11.968;2024-02-23T06:13:36;9.30;;;2.10;;
11006;SDS011;8186;57.652;11.968;2024-02-23T06:16:03;4.57;;;1.53;;
11006;SDS011;8186;57.652;11.968;2024-02-23T06:18:30;16.10;;;2.37;;
11006;SDS011;8186;57.652;11.968;2024-02-23T06:20:57;10.13;;;2.77;;
11006;SDS011;8186;57.652;11.968;2024-02-23T06:23:25;9.73;;;2.60;;
11006;SDS011;8186;57.652;11.968;2024-02-23T06:25:53;11.00;;;2.40;;
11006;SDS011;8186;57.652;11.968;2024-02-23T06:28:20;7.30;;;1.60;;
11006;SDS011;8186;57.652;11.968;2024-02-23T06:30:47;9.57;;;2.67;;
11006;SDS011;8186;57.652;11.968;2024-02-23T06:33:14;7.97;;;1.67;;
11006;SDS011;8186;57.652;11.968;2024-02-23T06:35:42;10.40;;;1.80;;
11006;SDS011;8186;57.652;11.968;2024-02-23T06:38:09;7.63;;;1.63;;
11006;SDS011;8186;57.652;11.968;2024-02-23T06:40:35;4.37;;;1.60;;
11006;SDS011;8186;57.652;11.968;2024-02-23T06:43:04;3.50;;;1.10;;
11006;SDS011;8186;57.652;11.968;2024-02-23T06:45:31;4.80;;;1.03;;
11006;SDS011;8186;57.652;11.968;2024-02-23T06:47:57;10.30;;;1.63;;
11006;SDS011;8186;57.652;11.968;2024-02-23T06:50:24;6.47;;;1.57;;
11006;SDS011;8186;57.652;11.968;2024-02-23T06:52:51;7.37;;;1.67;;
11006;SDS011;8186;57.652;11.968;2024-02-23T06:55:18;7.50;;;1.70;;
11006;SDS011;8186;57.652;11.968;2024-02-23T06:57:45;9.87;;;2.43;;
11006;SDS011;8186;57.652;11.968;2024-02-23T07:00:14;10.40;;;1.93;;
11006;SDS011;8186;57.652;11.968;2024-02-23T07:02:41;11.13;;;2.10;;
11006;SDS011;8186;57.652;11.968;2024-02-23T07:05:08;12.70;;;3.10;;
11006;SDS011;8186;57.652;11.968;2024-02-23T07:07:35;10.13;;;2.37;;
11006;SDS011;8186;57.652;11.968;2024-02-23T07:10:02;10.43;;;2.83;;
11006;SDS011;8186;57.652;11.968;2024-02-23T07:12:29;11.47;;;2.50;;
11006;SDS011;8186;57.652;11.968;2024-02-23T07:14:56;5.97;;;2.23;;
11006;SDS011;8186;57.652;11.968;2024-02-23T07:17:24;9.57;;;3.00;;
11006;SDS011;8186;57.652;11.968;2024-02-23T07:19:51;9.07;;;2.20;;
11006;SDS011;8186;57.652;11.968;2024-02-23T07:22:18;12.27;;;2.47;;
11006;SDS011;8186;57.652;11.968;2024-02-23T07:24:45;8.83;;;2.97;;
11006;SDS011;8186;57.652;11.968;2024-02-23T07:27:12;10.57;;;2.73;;
11006;SDS011;8186;57.652;11.968;2024-02-23T07:29:39;12.40;;;2.90;;
11006;SDS011;8186;57.652;11.968;2024-02-23T07:32:06;16.33;;;3.10;;
11006;SDS011;8186;57.652;11.968;2024-02-23T07:34:34;14.10;;;3.13;;
11006;SDS011;8186;57.652;11.968;2024-02-23T07:37:01;12.97;;;3.07;;
11006;SDS011;8186;57.652;11.968;2024-02-23T07:39:29;12.97;;;3.00;;
11006;SDS011;8186;57.652;11.968;2024-02-23T07:41:55;12.87;;;2.80;;
11006;SDS011;8186;57.652;11.968;2024-02-23T07:44:22;11.60;;;2.80;;
11006;SDS011;8186;57.652;11.968;2024-02-23T07:46:51;13.37;;;3.00;;
11006;SDS011;8186;57.652;11.968;2024-02-23T07:49:20;17.83;;;3.70;;
11006;SDS011;8186;57.652;11.968;2024-02-23T07:51:48;14.37;;;2.67;;
11006;SDS011;8186;57.652;11.968;2024-02-23T07:54:15;8.83;;;2.90;;
11006;SDS011;8186;57.652;11.968;2024-02-23T07:56:42;17.23;;;3.17;;
11006;SDS011;8186;57.652;11.968;2024-02-23T07:59:09;10.37;;;3.23;;
11006;SDS011;8186;57.652;11.968;2024-02-23T08:01:36;16.37;;;3.90;;
11006;SDS011;8186;57.652;11.968;2024-02-23T08:04:03;17.53;;;4.23;;
11006;SDS011;8186;57.652;11.968;2024-02-23T08:06:30;17.97;;;4.10;;
11006;SDS011;8186;57.652;11.968;2024-02-23T08:08:58;15.57;;;4.10;;
11006;SDS011;8186;57.652;11.968;2024-02-23T08:11:25;10.40;;;3.43;;
11006;SDS011;8186;57.652;11.968;2024-02-23T08:13:52;14.90;;;3.80;;
11006;SDS011;8186;57.652;11.968;2024-02-23T08:16:19;19.30;;;4.27;;
11006;SDS011;8186;57.652;11.968;2024-02-23T08:18:45;13.60;;;3.40;;
11006;SDS011;8186;57.652;11.968;2024-02-23T08:21:12;13.67;;;3.00;;
11006;SDS011;8186;57.652;11.968;2024-02-23T08:23:39;17.93;;;3.43;;
11006;SDS011;8186;57.652;11.968;2024-02-23T08:26:07;13.60;;;3.13;;
11006;SDS011;8186;57.652;11.968;2024-02-23T08:28:35;18.53;;;4.23;;
11006;SDS011;8186;57.652;11.968;2024-02-23T08:31:02;23.00;;;4.30;;
11006;SDS011;8186;57.652;11.968;2024-02-23T08:33:30;21.17;;;4.13;;
11006;SDS011;8186;57.652;11.968;2024-02-23T08:35:57;30.43;;;5.27;;
11006;SDS011;8186;57.652;11.968;2024-02-23T08:38:23;17.60;;;4.30;;
11006;SDS011;8186;57.652;11.968;2024-02-23T08:40:50;19.07;;;3.17;;
11006;SDS011;8186;57.652;11.968;2024-02-23T08:43:19;15.37;;;3.10;;
11006;SDS011;8186;57.652;11.968;2024-02-23T08:45:46;12.60;;;3.67;;
11006;SDS011;8186;57.652;11.968;2024-02-23T08:48:13;17.73;;;3.53;;
11006;SDS011;8186;57.652;11.968;2024-02-23T08:50:41;12.70;;;2.63;;
11006;SDS011;8186;57.652;11.968;2024-02-23T08:53:08;11.47;;;2.30;;
11006;SDS011;8186;57.652;11.968;2024-02-23T08:55:34;13.27;;;3.03;;
11006;SDS011;8186;57.652;11.968;2024-02-23T08:58:01;9.93;;;2.23;;
11006;SDS011;8186;57.652;11.968;2024-02-23T09:00:30;4.60;;;1.50;;
11006;SDS011;8186;57.652;11.968;2024-02-23T09:02:56;5.53;;;1.40;;
11006;SDS011;8186;57.652;11.968;2024-02-23T09:05:23;9.67;;;2.70;;
11006;SDS011;8186;57.652;11.968;2024-02-23T09:07:50;15.70;;;2.43;;
11006;SDS011;8186;57.652;11.968;2024-02-23T09:10:18;7.87;;;2.83;;
11006;SDS011;8186;57.652;11.968;2024-02-23T09:12:45;11.90;;;2.60;;
11006;SDS011;8186;57.652;11.968;2024-02-23T09:15:12;12.80;;;2.43;;
11006;SDS011;8186;57.652;11.968;2024-02-23T09:17:41;11.13;;;3.07;;
11006;SDS011;8186;57.652;11.968;2024-02-23T09:20:08;11.90;;;2.97;;
11006;SDS011;8186;57.652;11.968;2024-02-23T09:22:36;18.80;;;3.13;;
11006;SDS011;8186;57.652;11.968;2024-02-23T09:25:03;14.10;;;3.07;;
11006;SDS011;8186;57.652;11.968;2024-02-23T09:27:31;16.57;;;3.43;;
11006;SDS011;8186;57.652;11.968;2024-02-23T09:29:58;14.13;;;3.00;;
11006;SDS011;8186;57.652;11.968;2024-02-23T09:32:24;10.33;;;3.63;;
11006;SDS011;8186;57.652;11.968;2024-02-23T09:34:53;15.20;;;3.57;;
11006;SDS011;8186;57.652;11.968;2024-02-23T09:37:20;13.70;;;3.53;;
11006;SDS011;8186;57.652;11.968;2024-02-23T09:39:46;14.27;;;2.93;;
11006;SDS011;8186;57.652;11.968;2024-02-23T09:42:13;17.07;;;3.50;;
11006;SDS011;8186;57.652;11.968;2024-02-23T09:44:41;22.03;;;3.47;;
11006;SDS011;8186;57.652;11.968;2024-02-23T09:47:08;10.17;;;3.13;;
11006;SDS011;8186;57.652;11.968;2024-02-23T09:49:37;10.07;;;2.43;;
11006;SDS011;8186;57.652;11.968;2024-02-23T09:52:07;14.87;;;2.77;;
11006;SDS011;8186;57.652;11.968;2024-02-23T09:54:34;13.10;;;2.60;;
11006;SDS011;8186;57.652;11.968;2024-02-23T09:57:01;9.97;;;3.13;;
11006;SDS011;8186;57.652;11.968;2024-02-23T09:59:31;7.23;;;2.00;;
11006;SDS011;8186;57.652;11.968;2024-02-23T10:01:59;12.67;;;2.93;;
11006;SDS011;8186;57.652;11.968;2024-02-23T10:04:26;8.60;;;2.43;;
11006;SDS011;8186;57.652;11.968;2024-02-23T10:06:54;16.70;;;3.33;;
11006;SDS011;8186;57.652;11.968;2024-02-23T10:09:23;15.50;;;2.50;;
11006;SDS011;8186;57.652;11.968;2024-02-23T10:11:51;11.67;;;3.10;;
11006;SDS011;8186;57.652;11.968;2024-02-23T10:14:18;13.17;;;3.33;;
11006;SDS011;8186;57.652;11.968;2024-02-23T10:16:46;14.60;;;3.43;;
11006;SDS011;8186;57.652;11.968;2024-02-23T10:19:13;11.97;;;2.60;;
11006;SDS011;8186;57.652;11.968;2024-02-23T10:21:40;10.67;;;2.53;;
11006;SDS011;8186;57.652;11.968;2024-02-23T10:24:06;9.47;;;2.83;;
11006;SDS011;8186;57.652;11.968;2024-02-23T10:26:35;5.73;;;1.80;;
11006;SDS011;8186;57.652;11.968;2024-02-23T10:29:02;9.57;;;2.47;;
11006;SDS011;8186;57.652;11.968;2024-02-23T10:31:29;17.43;;;3.50;;
11006;SDS011;8186;57.652;11.968;2024-02-23T10:34:00;10.33;;;3.17;;
11006;SDS011;8186;57.652;11.968;2024-02-23T10:36:34;17.83;;;2.50;;
11006;SDS011;8186;57.652;11.968;2024-02-23T10:39:03;9.33;;;2.57;;
11006;SDS011;8186;57.652;11.968;2024-02-23T10:41:30;13.13;;;3.20;;
11006;SDS011;8186;57.652;11.968;2024-02-23T10:44:02;11.40;;;1.93;;
11006;SDS011;8186;57.652;11.968;2024-02-23T10:46:30;11.73;;;3.43;;
11006;SDS011;8186;57.652;11.968;2024-02-23T10:48:59;9.43;;;3.30;;
11006;SDS011;8186;57.652;11.968;2024-02-23T10:51:28;13.87;;;3.13;;
11006;SDS011;8186;57.652;11.968;2024-02-23T10:53:55;14.07;;;2.97;;
11006;SDS011;8186;57.652;11.968;2024-02-23T10:56:22;10.60;;;2.90;;
11006;SDS011;8186;57.652;11.968;2024-02-23T10:58:52;7.07;;;2.10;;
11006;SDS011;8186;57.652;11.968;2024-02-23T11:01:19;12.23;;;2.67;;
11006;SDS011;8186;57.652;11.968;2024-02-23T11:03:46;14.83;;;2.80;;
11006;SDS011;8186;57.652;11.968;2024-02-23T11:06:16;13.30;;;2.63;;
11006;SDS011;8186;57.652;11.968;2024-02-23T11:08:46;23.80;;;3.07;;
11006;SDS011;8186;57.652;11.968;2024-02-23T11:11:13;9.53;;;2.77;;
11006;SDS011;8186;57.652;11.968;2024-02-23T11:13:43;13.40;;;2.63;;
11006;SDS011;8186;57.652;11.968;2024-02-23T11:16:20;9.67;;;2.60;;
11006;SDS011;8186;57.652;11.968;2024-02-23T11:18:48;11.43;;;2.07;;
11006;SDS011;8186;57.652;11.968;2024-02-23T11:21:15;14.63;;;2.83;;
11006;SDS011;8186;57.652;11.968;2024-02-23T11:23:42;18.33;;;2.83;;
11006;SDS011;8186;57.652;11.968;2024-02-23T11:26:10;11.60;;;3.73;;
11006;SDS011;8186;57.652;11.968;2024-02-23T11:28:43;13.73;;;3.20;;
11006;SDS011;8186;57.652;11.968;2024-02-23T11:31:15;12.00;;;3.03;;
11006;SDS011;8186;57.652;11.968;2024-02-23T11:33:48;6.77;;;2.00;;
11006;SDS011;8186;57.652;11.968;2024-02-23T11:36:21;17.07;;;3.03;;
11006;SDS011;8186;57.652;11.968;2024-02-23T11:38:50;11.93;;;2.57;;
11006;SDS011;8186;57.652;11.968;2024-02-23T11:41:20;15.50;;;3.27;;
11006;SDS011;8186;57.652;11.968;2024-02-23T11:43:47;12.57;;;2.63;;
11006;SDS011;8186;57.652;11.968;2024-02-23T11:46:16;11.90;;;2.97;;
11006;SDS011;8186;57.652;11.968;2024-02-23T11:48:43;19.27;;;3.60;;
11006;SDS011;8186;57.652;11.968;2024-02-23T11:51:11;8.83;;;2.50;;
11006;SDS011;8186;57.652;11.968;2024-02-23T11:53:39;5.97;;;2.33;;
11006;SDS011;8186;57.652;11.968;2024-02-23T11:56:06;8.67;;;2.20;;
11006;SDS011;8186;57.652;11.968;2024-02-23T11:58:32;12.90;;;2.53;;
11006;SDS011;8186;57.652;11.968;2024-02-23T12:00:59;6.97;;;2.43;;
11006;SDS011;8186;57.652;11.968;2024-02-23T12:03:29;10.73;;;2.40;;
11006;SDS011;8186;57.652;11.968;2024-02-23T12:05:56;13.80;;;2.97;;
11006;SDS011;8186;57.652;11.968;2024-02-23T12:08:24;15.20;;;3.10;;
11006;SDS011;8186;57.652;11.968;2024-02-23T12:10:51;5.13;;;2.00;;
11006;SDS011;8186;57.652;11.968;2024-02-23T12:13:18;12.13;;;2.80;;
11006;SDS011;8186;57.652;11.968;2024-02-23T12:15:47;17.70;;;3.50;;
11006;SDS011;8186;57.652;11.968;2024-02-23T12:18:14;8.77;;;2.27;;
11006;SDS011;8186;57.652;11.968;2024-02-23T12:20:42;11.13;;;2.53;;
11006;SDS011;8186;57.652;11.968;2024-02-23T12:23:09;9.80;;;1.80;;
11006;SDS011;8186;57.652;11.968;2024-02-23T12:25:38;8.27;;;1.53;;
11006;SDS011;8186;57.652;11.968;2024-02-23T12:28:05;15.87;;;2.83;;
11006;SDS011;8186;57.652;11.968;2024-02-23T12:30:32;17.77;;;2.80;;
11006;SDS011;8186;57.652;11.968;2024-02-23T12:33:06;12.00;;;2.40;;
11006;SDS011;8186;57.652;11.968;2024-02-23T12:35:33;21.00;;;3.87;;
11006;SDS011;8186;57.652;11.968;2024-02-23T12:38:03;10.00;;;2.60;;
11006;SDS011;8186;57.652;11.968;2024-02-23T12:40:32;8.43;;;2.77;;
11006;SDS011;8186;57.652;11.968;2024-02-23T12:42:59;15.90;;;2.53;;
11006;SDS011;8186;57.652;11.968;2024-02-23T12:45:26;11.10;;;2.23;;
11006;SDS011;8186;57.652;11.968;2024-02-23T12:47:52;16.83;;;3.60;;
11006;SDS011;8186;57.652;11.968;2024-02-23T12:50:19;12.23;;;3.03;;
11006;SDS011;8186;57.652;11.968;2024-02-23T12:52:46;8.27;;;1.37;;
11006;SDS011;8186;57.652;11.968;2024-02-23T12:55:15;7.60;;;1.87;;
11006;SDS011;8186;57.652;11.968;2024-02-23T12:57:41;7.03;;;1.87;;
11006;SDS011;8186;57.652;11.968;2024-02-23T13:00:08;5.57;;;1.63;;
11006;SDS011;8186;57.652;11.968;2024-02-23T13:02:36;8.13;;;2.13;;
11006;SDS011;8186;57.652;11.968;2024-02-23T13:05:03;10.13;;;1.90;;
11006;SDS011;8186;57.652;11.968;2024-02-23T13:07:30;6.63;;;1.73;;
11006;SDS011;8186;57.652;11.968;2024-02-23T13:09:57;9.90;;;1.80;;
11006;SDS011;8186;57.652;11.968;2024-02-23T13:12:25;6.63;;;1.60;;
11006;SDS011;8186;57.652;11.968;2024-02-23T13:14:52;9.03;;;2.57;;
11006;SDS011;8186;57.652;11.968;2024-02-23T13:17:18;9.10;;;1.90;;
11006;SDS011;8186;57.652;11.968;2024-02-23T13:19:45;9.23;;;1.60;;
11006;SDS011;8186;57.652;11.968;2024-02-23T13:22:12;10.17;;;1.93;;
11006;SDS011;8186;57.652;11.968;2024-02-23T13:24:39;15.40;;;2.13;;
11006;SDS011;8186;57.652;11.968;2024-02-23T13:27:06;10.93;;;1.93;;
11006;SDS011;8186;57.652;11.968;2024-02-23T13:29:34;12.03;;;2.00;;
11006;SDS011;8186;57.652;11.968;2024-02-23T13:32:02;9.17;;;2.33;;
11006;SDS011;8186;57.652;11.968;2024-02-23T13:34:29;12.67;;;2.43;;
11006;SDS011;8186;57.652;11.968;2024-02-23T13:36:55;14.93;;;3.10;;
11006;SDS011;8186;57.652;11.968;2024-02-23T13:39:22;6.07;;;1.70;;
11006;SDS011;8186;57.652;11.968;2024-02-23T13:41:49;12.87;;;1.93;;
11006;SDS011;8186;57.652;11.968;2024-02-23T13:44:16;9.07;;;1.73;;
11006;SDS011;8186;57.652;11.968;2024-02-23T13:46:44;7.00;;;1.40;;
11006;SDS011;8186;57.652;11.968;2024-02-23T13:49:11;8.40;;;2.13;;
11006;SDS011;8186;57.652;11.968;2024-02-23T13:51:39;11.87;;;2.13;;
11006;SDS011;8186;57.652;11.968;2024-02-23T13:54:06;11.33;;;2.30;;
11006;SDS011;8186;57.652;11.968;2024-02-23T13:56:33;11.43;;;1.90;;
11006;SDS011;8186;57.652;11.968;2024-02-23T13:59:00;7.47;;;1.80;;
11006;SDS011;8186;57.652;11.968;2024-02-23T14:01:27;8.50;;;2.00;;
11006;SDS011;8186;57.652;11.968;2024-02-23T14:03:55;7.33;;;2.43;;
11006;SDS011;8186;57.652;11.968;2024-02-23T14:06:22;11.00;;;2.37;;
11006;SDS011;8186;57.652;11.968;2024-02-23T14:08:49;16.50;;;2.50;;
11006;SDS011;8186;57.652;11.968;2024-02-23T14:11:16;9.23;;;2.23;;
11006;SDS011;8186;57.652;11.968;2024-02-23T14:13:43;14.13;;;2.67;;
11006;SDS011;8186;57.652;11.968;2024-02-23T14:16:11;9.00;;;2.27;;
11006;SDS011;8186;57.652;11.968;2024-02-23T14:18:38;8.23;;;2.07;;
11006;SDS011;8186;57.652;11.968;2024-02-23T14:21:09;7.10;;;1.53;;
11006;SDS011;8186;57.652;11.968;2024-02-23T14:23:36;8.63;;;1.93;;
11006;SDS011;8186;57.652;11.968;2024-02-23T14:26:03;7.80;;;2.10;;
11006;SDS011;8186;57.652;11.968;2024-02-23T14:28:30;8.20;;;1.77;;
11006;SDS011;8186;57.652;11.968;2024-02-23T14:30:56;7.53;;;2.17;;
11006;SDS011;8186;57.652;11.968;2024-02-23T14:33:23;13.30;;;1.97;;
11006;SDS011;8186;57.652;11.968;2024-02-23T14:35:50;15.83;;;2.33;;
11006;SDS011;8186;57.652;11.968;2024-02-23T14:38:18;9.87;;;2.23;;
11006;SDS011;8186;57.652;11.968;2024-02-23T14:40:47;10.20;;;2.13;;
11006;SDS011;8186;57.652;11.968;2024-02-23T14:43:14;9.47;;;1.83;;